sensor_id;sensor_type;location;lat;lon;timestamp;pressure;altitude;pressure_sealevel;temperature;humidity
64844;BME280;51310;52.198;5.422;2023-05-29T00:00:20;102479.25;;;9.37;77.81
64844;BME280;51310;52.198;5.422;2023-05-29T00:02:50;102438.72;;;9.22;78.01
64844;BME280;51310;52.198;5.422;2023-05-29T00:05:17;102347.50;;;8.58;78.19
64844;BME280;51310;52.198;5.422;2023-05-29T00:07:43;102494.34;;;9.49;78.15
64844;BME280;51310;52.198;5.422;2023-05-29T00:10:11;102488.38;;;9.46;78.28
64844;BME280;51310;52.198;5.422;2023-05-29T00:12:38;102479.72;;;9.44;78.44
64844;BME280;51310;52.198;5.422;2023-05-29T00:15:05;102482.75;;;9.52;78.39
64844;BME280;51310;52.198;5.422;2023-05-29T00:17:32;102471.38;;;9.36;78.51
64844;BME280;51310;52.198;5.422;2023-05-29T00:19:59;102439.41;;;9.26;78.50
64844;BME280;51310;52.198;5.422;2023-05-29T00:22:27;102479.25;;;9.51;78.43
64844;BME280;51310;52.198;5.422;2023-05-29T00:24:53;102471.88;;;9.42;78.51
64844;BME280;51310;52.198;5.422;2023-05-29T00:27:19;102352.25;;;8.67;78.49
64844;BME280;51310;52.198;5.422;2023-05-29T00:29:46;102423.25;;;9.16;78.51
64844;BME280;51310;52.198;5.422;2023-05-29T00:32:12;102452.53;;;9.27;78.56
64844;BME280;51310;52.198;5.422;2023-05-29T00:34:37;102494.56;;;9.46;78.50
64844;BME280;51310;52.198;5.422;2023-05-29T00:37:03;102316.69;;;8.29;78.48
64844;BME280;51310;52.198;5.422;2023-05-29T00:39:29;102498.69;;;9.36;78.47
64844;BME280;51310;52.198;5.422;2023-05-29T00:41:56;102495.94;;;9.38;78.57
64844;BME280;51310;52.198;5.422;2023-05-29T00:44:22;102357.50;;;8.53;78.47
64844;BME280;51310;52.198;5.422;2023-05-29T00:46:51;102467.31;;;9.16;78.59
64844;BME280;51310;52.198;5.422;2023-05-29T00:49:20;102519.81;;;9.36;78.74
64844;BME280;51310;52.198;5.422;2023-05-29T00:51:50;102412.34;;;8.78;78.45
64844;BME280;51310;52.198;5.422;2023-05-29T00:54:22;102475.78;;;9.07;78.55
64844;BME280;51310;52.198;5.422;2023-05-29T00:56:49;102472.19;;;9.08;78.54
64844;BME280;51310;52.198;5.422;2023-05-29T00:59:15;102374.53;;;8.48;78.33
64844;BME280;51310;52.198;5.422;2023-05-29T01:01:42;102402.50;;;8.66;78.43
64844;BME280;51310;52.198;5.422;2023-05-29T01:04:10;102381.50;;;8.49;78.47
64844;BME280;51310;52.198;5.422;2023-05-29T01:06:38;102475.56;;;8.95;78.41
64844;BME280;51310;52.198;5.422;2023-05-29T01:09:05;102486.88;;;8.97;78.46
64844;BME280;51310;52.198;5.422;2023-05-29T01:12:03;102517.94;;;9.08;78.37
64844;BME280;51310;52.198;5.422;2023-05-29T01:20:38;102457.09;;;8.50;78.41
64844;BME280;51310;52.198;5.422;2023-05-29T01:24:13;102528.63;;;8.91;78.67
64844;BME280;51310;52.198;5.422;2023-05-29T01:28:56;102535.47;;;8.95;78.66
64844;BME280;51310;52.198;5.422;2023-05-29T01:31:26;102514.53;;;8.76;78.69
64844;BME280;51310;52.198;5.422;2023-05-29T01:33:57;102480.84;;;8.50;78.52
64844;BME280;51310;52.198;5.422;2023-05-29T01:36:23;102504.69;;;8.64;78.82
64844;BME280;51310;52.198;5.422;2023-05-29T01:38:52;102479.50;;;8.43;78.65
64844;BME280;51310;52.198;5.422;2023-05-29T01:41:20;102398.84;;;7.91;78.66
64844;BME280;51310;52.198;5.422;2023-05-29T01:43:48;102511.22;;;8.57;78.81
64844;BME280;51310;52.198;5.422;2023-05-29T01:46:16;102516.94;;;8.65;78.75
64844;BME280;51310;52.198;5.422;2023-05-29T01:48:45;102525.09;;;8.60;79.08
64844;BME280;51310;52.198;5.422;2023-05-29T01:51:12;102407.91;;;7.86;78.76
64844;BME280;51310;52.198;5.422;2023-05-29T01:53:39;102469.00;;;8.09;78.73
64844;BME280;51310;52.198;5.422;2023-05-29T01:56:07;102548.59;;;8.49;79.07
64844;BME280;51310;52.198;5.422;2023-05-29T01:58:35;102430.03;;;7.67;78.82
64844;BME280;51310;52.198;5.422;2023-05-29T02:01:02;102437.59;;;7.73;79.16
64844;BME280;51310;52.198;5.422;2023-05-29T02:03:29;102430.44;;;7.60;79.18
64844;BME280;51310;52.198;5.422;2023-05-29T02:05:59;102525.06;;;8.13;79.18
64844;BME280;51310;52.198;5.422;2023-05-29T02:08:26;102570.75;;;8.47;79.39
64844;BME280;51310;52.198;5.422;2023-05-29T02:10:52;102571.09;;;8.40;79.22
64844;BME280;51310;52.198;5.422;2023-05-29T02:13:18;102557.34;;;8.34;79.31
64844;BME280;51310;52.198;5.422;2023-05-29T02:15:44;102560.59;;;8.39;79.57
64844;BME280;51310;52.198;5.422;2023-05-29T02:18:13;102559.31;;;8.30;79.76
64844;BME280;51310;52.198;5.422;2023-05-29T02:20:40;102391.59;;;7.30;79.35
64844;BME280;51310;52.198;5.422;2023-05-29T02:23:05;102407.78;;;7.40;79.54
64844;BME280;51310;52.198;5.422;2023-05-29T02:25:31;102526.09;;;8.10;79.69
64844;BME280;51310;52.198;5.422;2023-05-29T02:27:57;102549.56;;;8.15;79.94
64844;BME280;51310;52.198;5.422;2023-05-29T02:30:23;102548.72;;;8.15;79.91
64844;BME280;51310;52.198;5.422;2023-05-29T02:32:48;102560.13;;;8.15;80.02
64844;BME280;51310;52.198;5.422;2023-05-29T02:35:14;102391.81;;;7.10;79.94
64844;BME280;51310;52.198;5.422;2023-05-29T02:37:41;102425.00;;;7.30;80.19
64844;BME280;51310;52.198;5.422;2023-05-29T02:40:07;102539.31;;;7.93;80.21
64844;BME280;51310;52.198;5.422;2023-05-29T02:42:36;102568.69;;;8.03;80.30
64844;BME280;51310;52.198;5.422;2023-05-29T02:45:02;102543.75;;;7.93;80.37
64844;BME280;51310;52.198;5.422;2023-05-29T02:47:28;102552.75;;;7.89;80.49
64844;BME280;51310;52.198;5.422;2023-05-29T02:49:53;102535.88;;;7.75;80.48
64844;BME280;51310;52.198;5.422;2023-05-29T02:52:19;102560.25;;;7.96;80.66
64844;BME280;51310;52.198;5.422;2023-05-29T02:54:44;102410.50;;;7.05;80.44
64844;BME280;51310;52.198;5.422;2023-05-29T02:57:10;102540.28;;;7.75;80.80
64844;BME280;51310;52.198;5.422;2023-05-29T02:59:36;102534.66;;;7.65;80.67
64844;BME280;51310;52.198;5.422;2023-05-29T03:02:02;102414.59;;;6.93;80.80
64844;BME280;51310;52.198;5.422;2023-05-29T03:04:28;102536.50;;;7.63;80.77
64844;BME280;51310;52.198;5.422;2023-05-29T03:06:54;102415.59;;;6.91;80.95
64844;BME280;51310;52.198;5.422;2023-05-29T03:09:20;102418.63;;;6.83;80.96
64844;BME280;51310;52.198;5.422;2023-05-29T03:11:46;102569.28;;;7.75;81.10
64844;BME280;51310;52.198;5.422;2023-05-29T03:14:13;102554.94;;;7.80;80.94
64844;BME280;51310;52.198;5.422;2023-05-29T03:16:39;102550.22;;;7.70;81.18
64844;BME280;51310;52.198;5.422;2023-05-29T03:19:06;102537.91;;;7.70;81.34
64844;BME280;51310;52.198;5.422;2023-05-29T03:21:33;102561.75;;;7.84;81.26
64844;BME280;51310;52.198;5.422;2023-05-29T03:23:59;102524.28;;;7.62;81.45
64844;BME280;51310;52.198;5.422;2023-05-29T03:26:26;102397.16;;;6.91;81.27
64844;BME280;51310;52.198;5.422;2023-05-29T03:28:52;102563.22;;;7.90;81.34
64844;BME280;51310;52.198;5.422;2023-05-29T03:31:17;102530.66;;;7.58;81.51
64844;BME280;51310;52.198;5.422;2023-05-29T03:33:43;102570.19;;;7.91;81.23
64844;BME280;51310;52.198;5.422;2023-05-29T03:36:09;102565.94;;;7.89;81.54
64844;BME280;51310;52.198;5.422;2023-05-29T03:38:34;102543.34;;;7.67;81.52
64844;BME280;51310;52.198;5.422;2023-05-29T03:41:00;102580.38;;;7.81;81.55
64844;BME280;51310;52.198;5.422;2023-05-29T03:43:26;102543.47;;;7.64;81.53
64844;BME280;51310;52.198;5.422;2023-05-29T03:45:51;102555.03;;;7.79;81.56
64844;BME280;51310;52.198;5.422;2023-05-29T03:48:17;102559.44;;;7.78;81.83
64844;BME280;51310;52.198;5.422;2023-05-29T03:50:46;102416.31;;;6.94;81.73
64844;BME280;51310;52.198;5.422;2023-05-29T03:53:12;102528.31;;;7.52;81.56
64844;BME280;51310;52.198;5.422;2023-05-29T03:55:37;102424.19;;;6.94;81.46
64844;BME280;51310;52.198;5.422;2023-05-29T03:58:03;102552.19;;;7.66;81.80
64844;BME280;51310;52.198;5.422;2023-05-29T04:00:29;102552.41;;;7.62;81.68
64844;BME280;51310;52.198;5.422;2023-05-29T04:02:56;102539.56;;;7.56;81.52
64844;BME280;51310;52.198;5.422;2023-05-29T04:05:22;102430.78;;;7.03;81.65
64844;BME280;51310;52.198;5.422;2023-05-29T04:07:48;102543.47;;;7.64;81.75
64844;BME280;51310;52.198;5.422;2023-05-29T04:10:13;102552.94;;;7.68;81.86
64844;BME280;51310;52.198;5.422;2023-05-29T04:12:39;102404.72;;;6.81;81.91
64844;BME280;51310;52.198;5.422;2023-05-29T04:15:06;102548.38;;;7.72;81.79
64844;BME280;51310;52.198;5.422;2023-05-29T04:17:32;102576.13;;;7.79;81.76
64844;BME280;51310;52.198;5.422;2023-05-29T04:19:58;102584.88;;;7.79;81.72
64844;BME280;51310;52.198;5.422;2023-05-29T04:22:24;102569.44;;;7.72;81.55
64844;BME280;51310;52.198;5.422;2023-05-29T04:24:50;102584.53;;;7.86;81.72
64844;BME280;51310;52.198;5.422;2023-05-29T04:27:16;102597.66;;;7.87;81.81
64844;BME280;51310;52.198;5.422;2023-05-29T04:29:42;102418.38;;;6.88;81.72
64844;BME280;51310;52.198;5.422;2023-05-29T04:32:09;102421.56;;;6.94;81.64
64844;BME280;51310;52.198;5.422;2023-05-29T04:34:39;102591.88;;;7.96;81.69
64844;BME280;51310;52.198;5.422;2023-05-29T04:37:05;102518.06;;;7.63;81.88
64844;BME280;51310;52.198;5.422;2023-05-29T04:39:32;102567.47;;;7.93;81.74
64844;BME280;51310;52.198;5.422;2023-05-29T04:41:57;102598.22;;;8.09;82.03
64844;BME280;51310;52.198;5.422;2023-05-29T04:44:26;102584.44;;;8.04;81.67
64844;BME280;51310;52.198;5.422;2023-05-29T04:46:52;102621.31;;;8.22;81.59
64844;BME280;51310;52.198;5.422;2023-05-29T04:49:19;102620.03;;;8.29;81.62
64844;BME280;51310;52.198;5.422;2023-05-29T04:51:46;102606.91;;;8.45;81.46
64844;BME280;51310;52.198;5.422;2023-05-29T04:54:12;102591.34;;;8.56;81.34
64844;BME280;51310;52.198;5.422;2023-05-29T04:56:38;102577.13;;;8.58;81.09
64844;BME280;51310;52.198;5.422;2023-05-29T04:59:06;102605.13;;;8.92;81.08
64844;BME280;51310;52.198;5.422;2023-05-29T05:01:34;102572.34;;;8.81;80.79
64844;BME280;51310;52.198;5.422;2023-05-29T05:04:00;102613.28;;;9.04;80.70
64844;BME280;51310;52.198;5.422;2023-05-29T05:06:26;102611.22;;;9.24;80.35
64844;BME280;51310;52.198;5.422;2023-05-29T05:08:53;102593.00;;;9.20;80.48
64844;BME280;51310;52.198;5.422;2023-05-29T05:11:19;102617.88;;;9.46;80.22
64844;BME280;51310;52.198;5.422;2023-05-29T05:13:46;102626.72;;;9.61;79.90
64844;BME280;51310;52.198;5.422;2023-05-29T05:16:12;102624.88;;;9.77;79.63
64844;BME280;51310;52.198;5.422;2023-05-29T05:18:38;102593.72;;;9.68;79.25
64844;BME280;51310;52.198;5.422;2023-05-29T05:21:04;102543.97;;;9.44;78.96
64844;BME280;51310;52.198;5.422;2023-05-29T05:23:31;102469.44;;;8.95;78.72
64844;BME280;51310;52.198;5.422;2023-05-29T05:25:57;102606.56;;;9.88;78.20
64844;BME280;51310;52.198;5.422;2023-05-29T05:28:23;102621.28;;;10.22;78.35
64844;BME280;51310;52.198;5.422;2023-05-29T05:30:49;102486.63;;;9.61;77.89
64844;BME280;51310;52.198;5.422;2023-05-29T05:33:15;102514.09;;;9.86;77.67
64844;BME280;51310;52.198;5.422;2023-05-29T05:35:41;102547.81;;;10.11;77.12
64844;BME280;51310;52.198;5.422;2023-05-29T05:38:06;102474.34;;;9.74;76.73
64844;BME280;51310;52.198;5.422;2023-05-29T05:40:33;102508.88;;;9.99;76.41
64844;BME280;51310;52.198;5.422;2023-05-29T05:42:59;102617.53;;;10.67;76.13
64844;BME280;51310;52.198;5.422;2023-05-29T05:45:24;102590.22;;;10.67;75.63
64844;BME280;51310;52.198;5.422;2023-05-29T05:47:50;102640.97;;;10.88;75.38
64844;BME280;51310;52.198;5.422;2023-05-29T05:50:16;102620.03;;;10.97;75.09
64844;BME280;51310;52.198;5.422;2023-05-29T05:52:41;102575.31;;;10.79;74.69
64844;BME280;51310;52.198;5.422;2023-05-29T05:55:07;102487.97;;;10.37;74.27
64844;BME280;51310;52.198;5.422;2023-05-29T05:57:33;102629.66;;;10.98;73.79
64844;BME280;51310;52.198;5.422;2023-05-29T06:00:05;102592.59;;;10.84;73.45
64844;BME280;51310;52.198;5.422;2023-05-29T06:02:37;102493.25;;;10.37;72.97
64844;BME280;51310;52.198;5.422;2023-05-29T06:05:04;102505.13;;;10.32;72.40
64844;BME280;51310;52.198;5.422;2023-05-29T06:07:32;102504.75;;;10.24;71.72
64844;BME280;51310;52.198;5.422;2023-05-29T06:09:58;102530.09;;;10.55;71.15
64844;BME280;51310;52.198;5.422;2023-05-29T06:12:24;102601.75;;;10.93;70.72
64844;BME280;51310;52.198;5.422;2023-05-29T06:14:50;102610.00;;;10.88;70.16
64844;BME280;51310;52.198;5.422;2023-05-29T06:17:16;102646.78;;;11.07;69.54
64844;BME280;51310;52.198;5.422;2023-05-29T06:19:41;102623.47;;;11.12;69.06
64844;BME280;51310;52.198;5.422;2023-05-29T06:22:07;102623.47;;;11.12;68.54
64844;BME280;51310;52.198;5.422;2023-05-29T06:24:33;102586.91;;;10.90;68.17
64844;BME280;51310;52.198;5.422;2023-05-29T06:26:58;102638.19;;;11.43;67.78
64844;BME280;51310;52.198;5.422;2023-05-29T06:29:24;102636.13;;;11.21;67.27
64844;BME280;51310;52.198;5.422;2023-05-29T06:31:50;102599.25;;;11.04;66.84
64844;BME280;51310;52.198;5.422;2023-05-29T06:34:15;102631.16;;;11.29;66.39
64844;BME280;51310;52.198;5.422;2023-05-29T06:36:41;102513.00;;;10.73;66.11
64844;BME280;51310;52.198;5.422;2023-05-29T06:39:07;102482.56;;;10.39;65.64
64844;BME280;51310;52.198;5.422;2023-05-29T06:41:33;102548.38;;;10.99;65.23
64844;BME280;51310;52.198;5.422;2023-05-29T06:43:59;102606.09;;;10.94;65.04
64844;BME280;51310;52.198;5.422;2023-05-29T06:46:25;102600.53;;;10.98;64.91
64844;BME280;51310;52.198;5.422;2023-05-29T06:48:51;102618.13;;;10.99;64.69
64844;BME280;51310;52.198;5.422;2023-05-29T06:51:17;102597.28;;;11.08;64.45
64844;BME280;51310;52.198;5.422;2023-05-29T06:53:43;102470.34;;;10.24;64.06
64844;BME280;51310;52.198;5.422;2023-05-29T06:56:09;102648.16;;;11.40;63.99
64844;BME280;51310;52.198;5.422;2023-05-29T06:58:35;102617.13;;;11.54;63.62
64844;BME280;51310;52.198;5.422;2023-05-29T07:01:01;102657.06;;;11.39;63.11
64844;BME280;51310;52.198;5.422;2023-05-29T07:03:28;102499.03;;;10.44;62.68
64844;BME280;51310;52.198;5.422;2023-05-29T07:05:54;102639.06;;;11.56;62.47
64844;BME280;51310;52.198;5.422;2023-05-29T07:08:20;102655.06;;;11.82;62.48
64844;BME280;51310;52.198;5.422;2023-05-29T07:10:46;102501.63;;;10.85;62.09
64844;BME280;51310;52.198;5.422;2023-05-29T07:13:17;102551.28;;;11.09;61.63
64844;BME280;51310;52.198;5.422;2023-05-29T07:15:44;102655.88;;;11.70;61.47
64844;BME280;51310;52.198;5.422;2023-05-29T07:18:10;102659.88;;;11.63;61.37
64844;BME280;51310;52.198;5.422;2023-05-29T07:20:36;102507.66;;;10.87;61.20
64844;BME280;51310;52.198;5.422;2023-05-29T07:23:02;102630.81;;;11.61;61.16
64844;BME280;51310;52.198;5.422;2023-05-29T07:25:30;102637.31;;;11.70;60.75
64844;BME280;51310;52.198;5.422;2023-05-29T07:27:56;102664.41;;;11.87;60.57
64844;BME280;51310;52.198;5.422;2023-05-29T07:30:22;102599.19;;;11.58;60.36
64844;BME280;51310;52.198;5.422;2023-05-29T07:32:48;102670.16;;;12.07;60.23
64844;BME280;51310;52.198;5.422;2023-05-29T07:35:13;102488.44;;;11.23;59.92
64844;BME280;51310;52.198;5.422;2023-05-29T07:37:39;102540.66;;;11.61;59.97
64844;BME280;51310;52.198;5.422;2023-05-29T07:40:05;102664.84;;;12.20;59.66
64844;BME280;51310;52.198;5.422;2023-05-29T07:42:32;102646.38;;;12.05;59.52
64844;BME280;51310;52.198;5.422;2023-05-29T07:44:58;102515.47;;;11.28;59.47
64844;BME280;51310;52.198;5.422;2023-05-29T07:47:24;102665.06;;;12.29;59.31
64844;BME280;51310;52.198;5.422;2023-05-29T07:49:49;102615.59;;;12.15;59.02
64844;BME280;51310;52.198;5.422;2023-05-29T07:52:15;102666.13;;;12.39;59.03
64844;BME280;51310;52.198;5.422;2023-05-29T07:54:41;102672.06;;;12.56;58.95
64844;BME280;51310;52.198;5.422;2023-05-29T07:57:08;102663.03;;;12.33;58.77
64844;BME280;51310;52.198;5.422;2023-05-29T07:59:41;102647.22;;;12.31;58.60
64844;BME280;51310;52.198;5.422;2023-05-29T08:02:08;102565.28;;;12.14;58.27
64844;BME280;51310;52.198;5.422;2023-05-29T08:04:34;102527.56;;;11.58;57.96
64844;BME280;51310;52.198;5.422;2023-05-29T08:07:00;102511.16;;;11.91;58.32
64844;BME280;51310;52.198;5.422;2023-05-29T08:09:26;102532.66;;;12.12;58.29
64844;BME280;51310;52.198;5.422;2023-05-29T08:11:52;102501.28;;;11.93;57.71
64844;BME280;51310;52.198;5.422;2023-05-29T08:14:18;102527.50;;;11.98;57.83
64844;BME280;51310;52.198;5.422;2023-05-29T08:16:43;102475.59;;;11.68;57.67
64844;BME280;51310;52.198;5.422;2023-05-29T08:19:09;102663.53;;;12.76;57.76
64844;BME280;51310;52.198;5.422;2023-05-29T08:21:35;102520.47;;;11.58;57.33
64844;BME280;51310;52.198;5.422;2023-05-29T08:24:02;102528.22;;;11.74;57.38
64844;BME280;51310;52.198;5.422;2023-05-29T08:26:30;102520.72;;;11.81;57.16
64844;BME280;51310;52.198;5.422;2023-05-29T08:28:56;102583.09;;;12.25;57.15
64844;BME280;51310;52.198;5.422;2023-05-29T08:31:22;102680.84;;;13.06;56.95
64844;BME280;51310;52.198;5.422;2023-05-29T08:33:51;102541.81;;;11.95;56.61
64844;BME280;51310;52.198;5.422;2023-05-29T08:36:17;102601.97;;;12.45;56.48
64844;BME280;51310;52.198;5.422;2023-05-29T08:38:43;102508.94;;;11.85;56.28
64844;BME280;51310;52.198;5.422;2023-05-29T08:41:25;102684.31;;;12.82;56.06
64844;BME280;51310;52.198;5.422;2023-05-29T08:43:52;102659.44;;;12.83;56.09
64844;BME280;51310;52.198;5.422;2023-05-29T08:46:18;102658.22;;;12.76;56.11
64844;BME280;51310;52.198;5.422;2023-05-29T08:48:49;102677.47;;;13.03;55.88
64844;BME280;51310;52.198;5.422;2023-05-29T08:51:20;102537.72;;;12.28;56.03
64844;BME280;51310;52.198;5.422;2023-05-29T08:53:47;102683.22;;;13.34;56.05
64844;BME280;51310;52.198;5.422;2023-05-29T08:56:13;102675.78;;;13.50;55.68
64844;BME280;51310;52.198;5.422;2023-05-29T08:58:39;102642.06;;;13.27;55.78
64844;BME280;51310;52.198;5.422;2023-05-29T09:01:05;102518.59;;;12.35;55.71
64844;BME280;51310;52.198;5.422;2023-05-29T09:03:31;102678.69;;;13.47;56.18
64844;BME280;51310;52.198;5.422;2023-05-29T09:06:00;102687.47;;;13.37;55.82
64844;BME280;51310;52.198;5.422;2023-05-29T09:08:26;102663.59;;;13.24;56.21
64844;BME280;51310;52.198;5.422;2023-05-29T09:10:53;102596.78;;;13.16;56.11
64844;BME280;51310;52.198;5.422;2023-05-29T09:13:20;102575.16;;;13.33;56.11
64844;BME280;51310;52.198;5.422;2023-05-29T09:15:46;102668.56;;;13.52;54.92
64844;BME280;51310;52.198;5.422;2023-05-29T09:18:12;102670.53;;;13.62;54.64
64844;BME280;51310;52.198;5.422;2023-05-29T09:20:38;102549.53;;;12.84;54.63
64844;BME280;51310;52.198;5.422;2023-05-29T09:23:07;102677.09;;;13.80;55.18
64844;BME280;51310;52.198;5.422;2023-05-29T09:25:39;102689.00;;;13.87;55.21
64844;BME280;51310;52.198;5.422;2023-05-29T09:28:08;102577.84;;;13.44;55.26
64844;BME280;51310;52.198;5.422;2023-05-29T09:30:45;102649.75;;;13.78;55.47
64844;BME280;51310;52.198;5.422;2023-05-29T09:33:14;102600.38;;;13.27;55.19
64844;BME280;51310;52.198;5.422;2023-05-29T09:35:42;102693.03;;;14.04;55.79
64844;BME280;51310;52.198;5.422;2023-05-29T09:38:11;102566.78;;;13.26;55.34
64844;BME280;51310;52.198;5.422;2023-05-29T09:40:39;102660.69;;;13.97;55.55
64844;BME280;51310;52.198;5.422;2023-05-29T09:43:10;102685.06;;;14.04;55.18
64844;BME280;51310;52.198;5.422;2023-05-29T09:45:41;102533.84;;;13.51;54.93
64844;BME280;51310;52.198;5.422;2023-05-29T09:48:13;102540.91;;;13.86;54.85
64844;BME280;51310;52.198;5.422;2023-05-29T09:50:40;102682.94;;;14.54;54.18
64844;BME280;51310;52.198;5.422;2023-05-29T09:53:21;102644.47;;;14.00;53.87
64844;BME280;51310;52.198;5.422;2023-05-29T09:55:54;102637.91;;;13.82;53.73
64844;BME280;51310;52.198;5.422;2023-05-29T09:58:24;102536.56;;;13.27;53.62
64844;BME280;51310;52.198;5.422;2023-05-29T10:00:52;102635.06;;;14.18;53.91
64844;BME280;51310;52.198;5.422;2023-05-29T10:03:18;102637.53;;;13.75;53.82
64844;BME280;51310;52.198;5.422;2023-05-29T10:05:50;102652.16;;;14.38;53.72
64844;BME280;51310;52.198;5.422;2023-05-29T10:08:19;102506.81;;;13.22;52.92
64844;BME280;51310;52.198;5.422;2023-05-29T10:11:05;102486.41;;;13.34;52.81
64844;BME280;51310;52.198;5.422;2023-05-29T10:13:38;102534.22;;;13.58;52.53
64844;BME280;51310;52.198;5.422;2023-05-29T10:16:11;102655.66;;;14.28;52.34
64844;BME280;51310;52.198;5.422;2023-05-29T10:18:43;102641.78;;;14.46;52.49
64844;BME280;51310;52.198;5.422;2023-05-29T10:21:15;102645.13;;;14.37;52.38
64844;BME280;51310;52.198;5.422;2023-05-29T10:23:47;102660.03;;;14.73;52.18
64844;BME280;51310;52.198;5.422;2023-05-29T10:26:23;102662.44;;;14.43;52.11
64844;BME280;51310;52.198;5.422;2023-05-29T10:35:10;102649.13;;;14.65;51.86
64844;BME280;51310;52.198;5.422;2023-05-29T10:38:03;102518.50;;;14.00;51.97
64844;BME280;51310;52.198;5.422;2023-05-29T10:40:33;102644.88;;;14.74;51.88
64844;BME280;51310;52.198;5.422;2023-05-29T10:42:59;102663.72;;;15.04;51.78
64844;BME280;51310;52.198;5.422;2023-05-29T10:50:45;102505.78;;;14.80;49.98
64844;BME280;51310;52.198;5.422;2023-05-29T10:53:18;102628.72;;;15.62;49.20
64844;BME280;51310;52.198;5.422;2023-05-29T10:55:48;102613.91;;;15.58;48.74
64844;BME280;51310;52.198;5.422;2023-05-29T10:58:19;102648.97;;;15.32;47.55
64844;BME280;51310;52.198;5.422;2023-05-29T11:00:47;102650.63;;;15.45;47.54
64844;BME280;51310;52.198;5.422;2023-05-29T11:03:21;102652.22;;;15.68;47.15
64844;BME280;51310;52.198;5.422;2023-05-29T11:06:02;102664.53;;;15.48;47.67
64844;BME280;51310;52.198;5.422;2023-05-29T11:08:58;102650.66;;;15.66;48.12
64844;BME280;51310;52.198;5.422;2023-05-29T11:11:31;102470.41;;;14.35;47.94
64844;BME280;51310;52.198;5.422;2023-05-29T11:14:03;102522.75;;;14.79;48.28
64844;BME280;51310;52.198;5.422;2023-05-29T11:18:57;102650.69;;;15.86;47.50
64844;BME280;51310;52.198;5.422;2023-05-29T11:24:22;102626.78;;;15.64;47.23
64844;BME280;51310;52.198;5.422;2023-05-29T11:26:50;102501.03;;;14.84;47.88
64844;BME280;51310;52.198;5.422;2023-05-29T11:29:22;102621.28;;;15.45;47.32
64844;BME280;51310;52.198;5.422;2023-05-29T11:31:58;102605.75;;;15.39;47.19
64844;BME280;51310;52.198;5.422;2023-05-29T11:34:28;102508.09;;;15.26;47.63
64844;BME280;51310;52.198;5.422;2023-05-29T11:36:54;102569.03;;;15.94;47.20
64844;BME280;51310;52.198;5.422;2023-05-29T11:39:20;102620.13;;;15.79;46.33
64844;BME280;51310;52.198;5.422;2023-05-29T11:41:50;102548.75;;;15.40;46.86
64844;BME280;51310;52.198;5.422;2023-05-29T11:44:17;102505.53;;;15.04;47.01
64844;BME280;51310;52.198;5.422;2023-05-29T11:46:43;102648.00;;;15.66;47.05
64844;BME280;51310;52.198;5.422;2023-05-29T11:49:09;102493.91;;;15.05;47.38
64844;BME280;51310;52.198;5.422;2023-05-29T11:51:34;102650.59;;;15.98;47.06
64844;BME280;51310;52.198;5.422;2023-05-29T11:54:00;102536.84;;;15.02;45.94
64844;BME280;51310;52.198;5.422;2023-05-29T11:56:27;102639.28;;;15.84;45.42
64844;BME280;51310;52.198;5.422;2023-05-29T11:58:54;102665.59;;;15.89;45.01
64844;BME280;51310;52.198;5.422;2023-05-29T12:01:23;102631.16;;;15.54;44.69
64844;BME280;51310;52.198;5.422;2023-05-29T12:03:49;102610.03;;;15.30;44.47
64844;BME280;51310;52.198;5.422;2023-05-29T12:06:15;102543.09;;;15.12;45.14
64844;BME280;51310;52.198;5.422;2023-05-29T12:08:41;102508.94;;;15.06;45.53
64844;BME280;51310;52.198;5.422;2023-05-29T12:11:08;102569.31;;;15.49;45.60
64844;BME280;51310;52.198;5.422;2023-05-29T12:13:34;102618.78;;;15.85;46.59
64844;BME280;51310;52.198;5.422;2023-05-29T12:16:03;102652.03;;;16.02;46.82
64844;BME280;51310;52.198;5.422;2023-05-29T12:18:30;102514.00;;;15.30;46.07
64844;BME280;51310;52.198;5.422;2023-05-29T12:21:01;102568.81;;;15.55;46.13
64844;BME280;51310;52.198;5.422;2023-05-29T12:23:28;102612.38;;;15.97;46.60
64844;BME280;51310;52.198;5.422;2023-05-29T12:25:56;102505.91;;;15.41;46.14
64844;BME280;51310;52.198;5.422;2023-05-29T12:28:22;102647.53;;;16.33;46.18
64844;BME280;51310;52.198;5.422;2023-05-29T12:30:49;102597.06;;;15.57;45.40
64844;BME280;51310;52.198;5.422;2023-05-29T12:33:31;102644.13;;;16.21;45.20
64844;BME280;51310;52.198;5.422;2023-05-29T12:36:08;102621.38;;;15.96;44.84
64844;BME280;51310;52.198;5.422;2023-05-29T12:38:50;102625.31;;;16.02;45.20
64844;BME280;51310;52.198;5.422;2023-05-29T12:41:33;102589.50;;;15.83;45.25
64844;BME280;51310;52.198;5.422;2023-05-29T12:44:03;102592.72;;;15.77;45.49
64844;BME280;51310;52.198;5.422;2023-05-29T12:46:38;102634.38;;;16.41;46.25
64844;BME280;51310;52.198;5.422;2023-05-29T12:49:14;102492.72;;;15.40;46.04
64844;BME280;51310;52.198;5.422;2023-05-29T12:51:42;102610.78;;;16.25;46.27
64844;BME280;51310;52.198;5.422;2023-05-29T12:54:14;102532.16;;;16.08;45.99
64844;BME280;51310;52.198;5.422;2023-05-29T12:56:40;102491.09;;;15.69;45.16
64844;BME280;51310;52.198;5.422;2023-05-29T12:59:07;102491.69;;;15.82;45.34
64844;BME280;51310;52.198;5.422;2023-05-29T13:01:34;102623.56;;;16.52;44.70
64844;BME280;51310;52.198;5.422;2023-05-29T13:04:00;102617.19;;;16.74;44.70
64844;BME280;51310;52.198;5.422;2023-05-29T13:06:26;102520.47;;;16.09;44.53
64844;BME280;51310;52.198;5.422;2023-05-29T13:08:52;102628.84;;;16.33;44.77
64844;BME280;51310;52.198;5.422;2023-05-29T13:11:17;102659.31;;;16.51;44.93
64844;BME280;51310;52.198;5.422;2023-05-29T13:13:43;102635.94;;;16.93;45.36
64844;BME280;51310;52.198;5.422;2023-05-29T13:16:09;102616.78;;;16.48;44.52
64844;BME280;51310;52.198;5.422;2023-05-29T13:18:35;102506.53;;;15.66;44.70
64844;BME280;51310;52.198;5.422;2023-05-29T13:21:01;102649.31;;;16.53;44.59
64844;BME280;51310;52.198;5.422;2023-05-29T13:23:27;102648.28;;;16.44;44.70